createdAt,value
2017-12-31T00:01:52.519Z,5.10
2017-12-31T00:04:19.760Z,5.10
2017-12-31T00:06:47.976Z,5.20
2017-12-31T00:09:15.124Z,5.20
2017-12-31T00:11:41.458Z,5.20
2017-12-31T00:14:08.521Z,5.20
2017-12-31T00:16:35.523Z,5.20
2017-12-31T00:19:02.512Z,5.20
2017-12-31T00:21:28.840Z,5.20
2017-12-31T00:23:55.163Z,5.20
2017-12-31T00:26:21.732Z,5.20
2017-12-31T00:28:48.088Z,5.20
2017-12-31T00:31:15.523Z,5.20
2017-12-31T00:33:42.584Z,5.20
2017-12-31T00:36:10.711Z,5.30
2017-12-31T00:38:37.032Z,5.30
2017-12-31T00:41:04.968Z,5.40
2017-12-31T00:43:31.297Z,5.40
2017-12-31T00:45:57.617Z,5.40
2017-12-31T00:48:24.896Z,5.30
2017-12-31T00:50:52.768Z,5.30
2017-12-31T00:53:19.104Z,5.40
2017-12-31T00:55:46.160Z,5.30
2017-12-31T00:58:12.484Z,5.30
2017-12-31T01:00:38.845Z,5.30
2017-12-31T01:03:06.123Z,5.30
2017-12-31T01:05:33.774Z,5.30
2017-12-31T01:08:01.828Z,5.40
2017-12-31T01:10:28.784Z,5.40
2017-12-31T01:12:55.121Z,5.40
2017-12-31T01:15:22.580Z,5.40
2017-12-31T01:17:50.144Z,5.40
2017-12-31T01:20:16.462Z,5.40
2017-12-31T01:22:42.774Z,5.40
2017-12-31T01:25:09.376Z,5.50
2017-12-31T01:27:37.202Z,5.60
2017-12-31T01:30:03.646Z,5.60
2017-12-31T01:32:30.867Z,5.50
2017-12-31T01:34:58.702Z,5.50
2017-12-31T01:37:25.022Z,5.50
2017-12-31T01:39:51.360Z,5.50
2017-12-31T01:42:18.529Z,5.60
2017-12-31T01:44:45.558Z,5.60
2017-12-31T01:47:12.787Z,5.60
2017-12-31T01:49:39.104Z,5.60
2017-12-31T01:52:07.246Z,5.60
2017-12-31T01:54:34.410Z,5.60
2017-12-31T01:57:00.759Z,5.60
2017-12-31T01:59:28.004Z,5.50
2017-12-31T02:01:54.342Z,5.60
2017-12-31T02:04:20.671Z,5.60
2017-12-31T02:06:48.126Z,5.60
2017-12-31T02:09:15.287Z,5.70
2017-12-31T02:11:41.606Z,5.70
2017-12-31T02:14:07.926Z,5.70
2017-12-31T02:16:34.958Z,5.60
2017-12-31T02:19:02.063Z,5.60
2017-12-31T02:21:28.386Z,5.60
2017-12-31T02:23:54.710Z,5.60
2017-12-31T02:26:21.078Z,5.50
2017-12-31T02:28:47.414Z,5.60
2017-12-31T02:31:14.775Z,5.60
2017-12-31T02:33:41.828Z,5.60
2017-12-31T02:36:08.876Z,5.50
2017-12-31T02:38:36.122Z,5.50
2017-12-31T02:41:03.401Z,5.50
2017-12-31T02:43:32.031Z,5.30
2017-12-31T02:45:58.354Z,5.30
2017-12-31T02:48:26.286Z,5.30
2017-12-31T02:50:53.647Z,5.30
2017-12-31T02:53:19.978Z,5.30
2017-12-31T02:55:46.297Z,5.30
2017-12-31T02:58:12.881Z,5.30
2017-12-31T03:00:40.220Z,5.20
2017-12-31T03:03:06.530Z,5.10
2017-12-31T03:05:33.713Z,5.10
2017-12-31T03:08:01.066Z,5.10
2017-12-31T03:10:27.376Z,5.00
2017-12-31T03:12:53.694Z,5.00
2017-12-31T03:15:21.554Z,5.00
2017-12-31T03:17:50.115Z,4.90
2017-12-31T03:20:17.226Z,4.80
2017-12-31T03:22:43.612Z,4.80
2017-12-31T03:25:09.990Z,4.80
2017-12-31T03:27:36.986Z,4.80
2017-12-31T03:30:03.339Z,4.80
2017-12-31T03:32:30.574Z,4.70
2017-12-31T03:34:57.734Z,4.80
2017-12-31T03:37:24.786Z,4.80
2017-12-31T03:39:51.834Z,4.80
2017-12-31T03:42:18.890Z,4.80
2017-12-31T03:44:45.230Z,4.80
2017-12-31T03:47:12.383Z,4.80
2017-12-31T03:49:38.739Z,4.70
2017-12-31T03:52:05.819Z,4.70
2017-12-31T03:54:33.116Z,4.70
2017-12-31T03:56:59.479Z,4.70
2017-12-31T03:59:28.362Z,4.70
2017-12-31T04:01:55.371Z,4.70
2017-12-31T04:04:21.706Z,4.60
2017-12-31T04:06:48.914Z,4.70
2017-12-31T04:09:15.954Z,4.70
2017-12-31T04:11:42.278Z,4.70
2017-12-31T04:14:08.601Z,4.70
2017-12-31T04:16:35.687Z,4.60
2017-12-31T04:19:02.740Z,4.60
2017-12-31T04:21:29.072Z,4.60
2017-12-31T04:23:55.577Z,4.60
2017-12-31T04:26:23.570Z,4.60
2017-12-31T04:28:49.945Z,4.60
2017-12-31T04:31:18.018Z,4.60
2017-12-31T04:33:45.369Z,4.50
2017-12-31T04:36:12.330Z,4.50
2017-12-31T04:38:40.972Z,4.40
2017-12-31T04:47:54.622Z,4.40
2017-12-31T04:50:20.967Z,4.40
2017-12-31T04:52:48.779Z,4.30
2017-12-31T04:55:16.194Z,4.20
2017-12-31T04:57:42.519Z,4.20
2017-12-31T05:00:09.895Z,4.30
2017-12-31T05:02:36.206Z,4.30
2017-12-31T05:05:03.571Z,4.20
2017-12-31T05:07:31.417Z,4.20
2017-12-31T05:09:58.510Z,4.20
2017-12-31T05:12:25.232Z,4.30
2017-12-31T05:14:52.427Z,4.20
2017-12-31T05:17:20.833Z,4.20
2017-12-31T05:19:48.569Z,4.20
2017-12-31T05:22:15.927Z,4.20
2017-12-31T05:24:42.252Z,4.20
2017-12-31T05:27:09.150Z,4.20
2017-12-31T05:29:36.251Z,4.20
2017-12-31T05:32:03.625Z,4.20
2017-12-31T05:34:30.874Z,4.20
2017-12-31T05:36:57.200Z,4.20
2017-12-31T05:39:23.526Z,4.30
2017-12-31T05:41:51.002Z,4.30
2017-12-31T05:44:17.322Z,4.30
2017-12-31T05:46:43.658Z,4.30
2017-12-31T05:49:10.018Z,4.30
2017-12-31T05:51:37.192Z,4.30
2017-12-31T05:54:03.518Z,4.40
2017-12-31T05:56:30.672Z,4.40
2017-12-31T05:58:57.006Z,4.40
2017-12-31T06:01:23.318Z,4.40
2017-12-31T06:03:50.702Z,4.40
2017-12-31T06:06:17.120Z,4.40
2017-12-31T06:08:44.193Z,4.50
2017-12-31T06:11:11.304Z,4.60
2017-12-31T06:13:37.622Z,4.50
2017-12-31T06:16:05.660Z,4.50
2017-12-31T06:18:32.708Z,4.50
2017-12-31T06:20:59.771Z,4.60
2017-12-31T06:23:26.094Z,4.60
2017-12-31T06:25:52.419Z,4.60
2017-12-31T06:28:19.084Z,4.70
2017-12-31T06:30:46.870Z,4.70
2017-12-31T06:33:14.112Z,4.80
2017-12-31T06:35:41.264Z,4.80
2017-12-31T06:38:07.580Z,4.90
2017-12-31T06:40:34.648Z,4.90
2017-12-31T06:43:00.961Z,5.00
2017-12-31T06:45:27.310Z,5.00
2017-12-31T06:47:53.904Z,5.00
2017-12-31T06:50:21.636Z,5.10
2017-12-31T06:52:48.793Z,5.00
2017-12-31T06:55:15.881Z,5.10
2017-12-31T06:57:42.961Z,5.20
2017-12-31T07:00:09.332Z,5.10
2017-12-31T07:02:36.074Z,5.20
2017-12-31T07:05:02.401Z,5.30
2017-12-31T07:07:29.779Z,5.30
2017-12-31T07:09:57.042Z,5.30
2017-12-31T07:12:23.371Z,5.20
2017-12-31T07:14:49.680Z,5.30
2017-12-31T07:17:16.760Z,5.30
2017-12-31T07:19:43.923Z,5.30
2017-12-31T07:22:11.022Z,5.30
2017-12-31T07:24:37.422Z,5.40
2017-12-31T07:27:04.149Z,5.40
2017-12-31T07:29:31.451Z,5.40
2017-12-31T07:31:59.387Z,5.40
2017-12-31T07:34:26.643Z,5.40
2017-12-31T07:36:53.797Z,5.40
2017-12-31T07:39:21.064Z,5.50
2017-12-31T07:41:48.107Z,5.50
2017-12-31T07:44:15.273Z,5.50
2017-12-31T07:46:41.712Z,5.50
2017-12-31T07:49:08.035Z,5.60
2017-12-31T07:51:35.198Z,5.60
2017-12-31T07:54:01.539Z,5.70
2017-12-31T07:56:28.603Z,5.70
2017-12-31T07:58:55.234Z,5.70
2017-12-31T08:01:23.048Z,5.80
2017-12-31T08:03:50.667Z,5.80
2017-12-31T08:06:17.808Z,5.90
2017-12-31T08:08:44.972Z,6.00
2017-12-31T08:11:12.334Z,6.00
2017-12-31T08:13:38.666Z,6.10
2017-12-31T08:16:05.928Z,6.10
2017-12-31T08:18:33.051Z,6.10
2017-12-31T08:20:59.385Z,6.20
2017-12-31T08:23:26.339Z,6.20
2017-12-31T08:25:52.704Z,6.20
2017-12-31T08:28:19.864Z,6.30
2017-12-31T08:30:47.115Z,6.40
2017-12-31T08:33:13.448Z,6.40
2017-12-31T08:35:40.603Z,6.40
2017-12-31T08:38:07.657Z,6.50
2017-12-31T08:40:34.712Z,6.50
2017-12-31T08:43:01.048Z,6.60
2017-12-31T08:45:27.356Z,6.70
2017-12-31T08:47:54.032Z,6.80
2017-12-31T08:50:21.184Z,6.80
2017-12-31T08:52:47.556Z,6.90
2017-12-31T08:55:15.603Z,7.00
2017-12-31T08:57:41.936Z,7.00
2017-12-31T09:00:08.996Z,7.00
2017-12-31T09:02:36.060Z,7.00
2017-12-31T09:05:02.408Z,7.00
2017-12-31T09:07:30.112Z,7.00
2017-12-31T09:09:57.201Z,6.90
2017-12-31T09:12:23.520Z,6.80
2017-12-31T09:14:50.592Z,6.70
2017-12-31T09:17:17.843Z,6.60
2017-12-31T09:19:44.894Z,6.50
2017-12-31T09:22:11.280Z,6.50
2017-12-31T09:24:39.827Z,6.50
2017-12-31T09:27:06.161Z,6.50
2017-12-31T09:29:32.475Z,6.50
2017-12-31T09:31:59.860Z,6.50
2017-12-31T09:34:26.979Z,6.60
2017-12-31T09:36:53.960Z,6.60
2017-12-31T09:39:21.217Z,6.70
2017-12-31T09:41:49.400Z,6.70
2017-12-31T09:44:16.499Z,6.80
2017-12-31T09:46:43.712Z,6.90
2017-12-31T09:49:10.012Z,6.90
2017-12-31T09:51:37.419Z,7.00
2017-12-31T09:54:04.681Z,7.00
2017-12-31T09:56:31.760Z,7.10
2017-12-31T09:58:58.831Z,7.20
2017-12-31T10:01:25.158Z,7.30
2017-12-31T10:03:52.160Z,7.30
2017-12-31T10:06:18.504Z,7.30
2017-12-31T10:08:45.756Z,7.40
2017-12-31T10:11:13.206Z,7.50
2017-12-31T10:13:40.209Z,7.50
2017-12-31T10:16:08.296Z,7.60
2017-12-31T10:18:35.600Z,7.60
2017-12-31T10:21:01.924Z,7.70
2017-12-31T10:23:29.094Z,7.70
2017-12-31T10:25:55.412Z,7.80
2017-12-31T10:28:21.755Z,7.80
2017-12-31T10:30:48.904Z,7.90
2017-12-31T10:33:15.970Z,7.90
2017-12-31T10:35:42.336Z,7.90
2017-12-31T10:38:10.705Z,8.00
2017-12-31T10:40:37.947Z,8.00
2017-12-31T10:43:05.043Z,8.00
2017-12-31T10:45:32.875Z,8.00
2017-12-31T10:47:59.944Z,8.00
2017-12-31T10:50:27.288Z,8.00
2017-12-31T10:52:54.128Z,8.10
2017-12-31T10:55:21.210Z,8.10
2017-12-31T10:57:50.464Z,8.10
2017-12-31T11:00:16.864Z,8.10
2017-12-31T11:02:45.310Z,8.20
2017-12-31T11:05:13.402Z,8.20
2017-12-31T11:07:40.539Z,8.20
2017-12-31T11:10:07.700Z,8.20
2017-12-31T11:12:34.763Z,8.30
2017-12-31T11:15:01.116Z,8.30
2017-12-31T11:17:28.216Z,8.40
2017-12-31T11:19:55.291Z,8.40
2017-12-31T11:22:21.648Z,8.40
2017-12-31T11:24:48.792Z,8.50
2017-12-31T11:27:15.156Z,8.40
2017-12-31T11:29:43.000Z,8.50
2017-12-31T11:32:10.044Z,8.50
2017-12-31T11:34:37.224Z,8.50
2017-12-31T11:37:04.344Z,8.50
2017-12-31T11:39:30.769Z,8.50
2017-12-31T11:41:58.251Z,8.60
2017-12-31T11:44:24.568Z,8.60
2017-12-31T11:46:51.546Z,8.60
2017-12-31T11:49:18.606Z,8.70
2017-12-31T11:51:45.648Z,8.70
2017-12-31T11:54:11.987Z,8.70
2017-12-31T11:56:39.139Z,8.60
2017-12-31T11:59:06.296Z,8.70
2017-12-31T12:01:33.656Z,8.70
2017-12-31T12:03:59.995Z,8.70
2017-12-31T12:06:26.945Z,8.70
2017-12-31T12:08:54.151Z,8.70
2017-12-31T12:11:22.181Z,8.80
2017-12-31T12:13:48.512Z,8.70
2017-12-31T12:16:15.664Z,8.80
2017-12-31T12:18:42.715Z,8.80
2017-12-31T12:21:09.768Z,8.90
2017-12-31T12:23:37.184Z,8.90
2017-12-31T12:26:04.387Z,8.90
2017-12-31T12:28:30.737Z,8.90
2017-12-31T12:30:57.949Z,9.00
2017-12-31T12:33:25.065Z,9.00
2017-12-31T12:35:52.260Z,9.00
2017-12-31T12:38:19.444Z,9.00
2017-12-31T12:40:46.492Z,9.00
2017-12-31T12:43:13.452Z,9.00
2017-12-31T12:45:39.786Z,9.00
2017-12-31T12:48:06.122Z,9.00
2017-12-31T12:50:33.181Z,9.00
2017-12-31T12:52:59.496Z,9.00
2017-12-31T12:55:26.762Z,9.10
2017-12-31T12:57:53.088Z,9.00
2017-12-31T13:00:19.417Z,9.00
2017-12-31T13:02:45.811Z,9.10
2017-12-31T13:05:12.873Z,9.00
2017-12-31T13:07:40.803Z,9.00
2017-12-31T13:10:07.851Z,9.00
2017-12-31T13:12:35.007Z,8.90
2017-12-31T13:15:02.407Z,8.90
2017-12-31T13:17:30.272Z,8.80
2017-12-31T13:19:58.116Z,8.80
2017-12-31T13:22:24.508Z,8.70
2017-12-31T13:24:51.624Z,8.70
2017-12-31T13:27:18.726Z,8.60
2017-12-31T13:29:45.168Z,8.30
2017-12-31T13:32:12.368Z,8.10
2017-12-31T13:34:38.706Z,7.90
2017-12-31T13:37:06.572Z,7.70
2017-12-31T13:39:32.920Z,7.50
2017-12-31T13:42:01.082Z,7.30
2017-12-31T13:44:28.233Z,7.20
2017-12-31T13:46:54.569Z,7.10
2017-12-31T13:49:20.907Z,7.00
2017-12-31T13:51:47.553Z,6.80
2017-12-31T13:54:15.009Z,6.70
2017-12-31T13:56:42.163Z,6.60
2017-12-31T13:59:09.422Z,6.50
2017-12-31T14:01:36.579Z,6.30
2017-12-31T14:04:04.351Z,6.20
2017-12-31T14:06:31.596Z,6.10
2017-12-31T14:08:58.762Z,6.10
2017-12-31T14:11:25.808Z,6.10
2017-12-31T14:13:52.873Z,6.00
2017-12-31T14:16:20.561Z,5.70
2017-12-31T14:18:47.635Z,5.60
2017-12-31T14:21:15.042Z,5.60
2017-12-31T14:23:41.379Z,5.60
2017-12-31T14:26:07.754Z,5.50
2017-12-31T14:28:34.861Z,5.40
2017-12-31T14:31:02.202Z,5.30
2017-12-31T14:33:28.527Z,5.30
2017-12-31T14:35:55.636Z,5.30
2017-12-31T14:38:22.001Z,5.20
2017-12-31T14:40:49.835Z,5.10
2017-12-31T14:43:16.987Z,5.10
2017-12-31T14:45:43.343Z,5.00
2017-12-31T14:48:09.671Z,5.00
2017-12-31T14:50:37.138Z,4.90
2017-12-31T14:53:03.482Z,4.80
2017-12-31T14:55:29.966Z,4.80
2017-12-31T14:57:56.593Z,4.70
2017-12-31T15:00:22.947Z,4.60
2017-12-31T15:02:50.132Z,4.50
2017-12-31T15:05:17.265Z,4.50
2017-12-31T15:07:44.439Z,4.50
2017-12-31T15:10:27.369Z,4.40
2017-12-31T15:12:54.937Z,4.40
2017-12-31T15:15:21.276Z,4.30
2017-12-31T15:17:48.314Z,4.20
2017-12-31T15:20:15.912Z,4.10
2017-12-31T15:22:42.284Z,4.10
2017-12-31T15:25:10.188Z,4.00
2017-12-31T15:27:37.449Z,4.00
2017-12-31T15:30:03.794Z,4.00
2017-12-31T15:32:30.968Z,3.90
2017-12-31T15:34:58.038Z,3.90
2017-12-31T15:37:25.144Z,3.90
2017-12-31T15:39:51.464Z,3.90
2017-12-31T15:42:18.634Z,3.90
2017-12-31T15:44:45.217Z,3.90
2017-12-31T15:47:11.592Z,3.90
2017-12-31T15:49:38.060Z,3.90
2017-12-31T15:52:04.383Z,3.90
2017-12-31T15:54:31.670Z,3.80
2017-12-31T15:56:59.521Z,3.70
2017-12-31T15:59:25.843Z,3.70
2017-12-31T16:01:52.178Z,3.70
2017-12-31T16:04:19.344Z,3.70
2017-12-31T16:06:46.344Z,3.70
2017-12-31T16:09:13.758Z,3.60
2017-12-31T16:11:40.812Z,3.60
2017-12-31T16:14:07.972Z,3.60
2017-12-31T16:16:35.128Z,3.50
2017-12-31T16:19:01.454Z,3.50
2017-12-31T16:21:27.778Z,3.40
2017-12-31T16:23:54.344Z,3.40
2017-12-31T16:26:20.676Z,3.40
2017-12-31T16:28:47.094Z,3.40
2017-12-31T16:31:15.298Z,3.40
2017-12-31T16:33:41.610Z,3.40
2017-12-31T16:36:07.930Z,3.40
2017-12-31T16:38:34.322Z,3.40
2017-12-31T16:41:01.764Z,3.30
2017-12-31T16:43:29.126Z,3.30
2017-12-31T16:45:56.192Z,3.30
2017-12-31T16:48:22.524Z,3.30
2017-12-31T16:50:49.340Z,3.30
2017-12-31T16:53:17.329Z,3.20
2017-12-31T16:55:45.409Z,3.20
2017-12-31T16:58:11.760Z,3.20
2017-12-31T17:00:38.100Z,3.10
2017-12-31T17:03:04.721Z,3.20
2017-12-31T17:05:32.112Z,3.10
2017-12-31T17:08:00.072Z,3.00
2017-12-31T17:10:27.220Z,3.00
2017-12-31T17:12:53.546Z,3.00
2017-12-31T17:15:21.367Z,3.00
2017-12-31T17:17:48.161Z,3.00
2017-12-31T17:20:14.593Z,3.00
2017-12-31T17:22:41.252Z,3.00
2017-12-31T17:25:07.932Z,2.90
2017-12-31T17:27:36.000Z,2.90
2017-12-31T17:30:03.096Z,2.90
2017-12-31T17:32:30.315Z,2.90
2017-12-31T17:34:57.385Z,2.90
2017-12-31T17:37:24.803Z,2.90
2017-12-31T17:39:51.174Z,2.90
2017-12-31T17:42:18.995Z,2.90
2017-12-31T17:44:45.339Z,2.90
2017-12-31T17:47:12.402Z,2.90
2017-12-31T17:49:38.754Z,2.90
2017-12-31T17:52:05.855Z,2.90
2017-12-31T17:54:32.545Z,2.90
2017-12-31T17:56:59.630Z,2.90
2017-12-31T17:59:26.157Z,2.90
2017-12-31T18:01:53.275Z,2.90
2017-12-31T18:04:20.427Z,2.90
2017-12-31T18:06:46.747Z,2.90
2017-12-31T18:09:13.824Z,3.00
2017-12-31T18:11:40.838Z,3.00
2017-12-31T18:14:07.926Z,3.10
2017-12-31T18:16:34.256Z,3.20
2017-12-31T18:19:00.578Z,3.20
2017-12-31T18:21:27.758Z,3.20
2017-12-31T18:23:54.084Z,3.30
2017-12-31T18:26:21.137Z,3.30
2017-12-31T18:28:48.595Z,3.40
2017-12-31T18:31:15.651Z,3.40
2017-12-31T18:33:41.984Z,3.40
2017-12-31T18:36:08.350Z,3.30
2017-12-31T18:38:34.963Z,3.40
2017-12-31T18:41:02.657Z,3.40
2017-12-31T18:43:28.994Z,3.40
2017-12-31T18:45:56.232Z,3.40
2017-12-31T18:48:22.568Z,3.50
2017-12-31T18:50:48.908Z,3.50
2017-12-31T18:53:15.352Z,3.60
2017-12-31T18:55:41.681Z,3.60
2017-12-31T18:58:08.152Z,3.60
2017-12-31T19:00:36.411Z,3.50
2017-12-31T19:03:03.875Z,3.50
2017-12-31T19:05:30.923Z,3.50
2017-12-31T19:07:57.955Z,3.50
2017-12-31T19:10:25.021Z,3.50
2017-12-31T19:12:52.088Z,3.50
2017-12-31T19:15:19.179Z,3.50
2017-12-31T19:17:45.507Z,3.50
2017-12-31T19:20:11.832Z,3.50
2017-12-31T19:22:39.768Z,3.50
2017-12-31T19:25:07.432Z,3.50
2017-12-31T19:27:33.758Z,3.50
2017-12-31T19:30:00.081Z,3.50
2017-12-31T19:32:27.176Z,3.50
2017-12-31T19:34:53.486Z,3.50
2017-12-31T19:37:19.843Z,3.50
2017-12-31T19:39:46.996Z,3.50
2017-12-31T19:42:14.046Z,3.50
2017-12-31T19:44:40.383Z,3.50
2017-12-31T19:47:07.435Z,3.50
2017-12-31T19:49:33.771Z,3.40
2017-12-31T19:52:00.398Z,3.40
2017-12-31T19:54:27.832Z,3.40
2017-12-31T19:56:54.216Z,3.40
2017-12-31T19:59:21.472Z,3.30
2017-12-31T20:01:47.811Z,3.30
2017-12-31T20:04:14.888Z,3.30
2017-12-31T20:06:43.041Z,3.40
2017-12-31T20:09:10.193Z,3.40
2017-12-31T20:11:36.853Z,3.40
2017-12-31T20:14:03.762Z,3.30
2017-12-31T20:16:30.939Z,3.30
2017-12-31T20:18:57.336Z,3.30
2017-12-31T20:21:24.488Z,3.20
2017-12-31T20:23:50.876Z,3.20
2017-12-31T20:26:17.924Z,3.20
2017-12-31T20:28:44.251Z,3.30
2017-12-31T20:31:11.727Z,3.30
2017-12-31T20:33:38.392Z,3.40
2017-12-31T20:36:06.132Z,3.30
2017-12-31T20:38:32.526Z,3.30
2017-12-31T20:40:59.534Z,3.40
2017-12-31T20:43:26.149Z,3.30
2017-12-31T20:45:52.491Z,3.30
2017-12-31T20:48:19.459Z,3.30
2017-12-31T20:50:46.843Z,3.30
2017-12-31T20:53:14.132Z,3.30
2017-12-31T20:55:40.892Z,3.30
2017-12-31T20:58:07.974Z,3.30
2017-12-31T21:00:34.304Z,3.30
2017-12-31T21:03:00.648Z,3.30
2017-12-31T21:05:27.697Z,3.30
2017-12-31T21:07:54.843Z,3.20
2017-12-31T21:10:21.908Z,3.20
2017-12-31T21:12:48.980Z,3.20
2017-12-31T21:15:16.108Z,3.20
2017-12-31T21:17:43.376Z,3.10
2017-12-31T21:20:09.690Z,3.10
2017-12-31T21:22:36.870Z,3.10
2017-12-31T21:25:03.220Z,3.10
2017-12-31T21:27:29.536Z,3.20
2017-12-31T21:29:56.717Z,3.20
2017-12-31T21:32:24.147Z,3.20
2017-12-31T21:34:50.478Z,3.30
2017-12-31T21:37:17.848Z,3.20
2017-12-31T21:39:44.368Z,3.20
2017-12-31T21:42:11.601Z,3.20
2017-12-31T21:44:37.934Z,3.20
2017-12-31T21:47:04.291Z,3.20
2017-12-31T21:49:30.961Z,3.20
2017-12-31T21:51:57.347Z,3.20
2017-12-31T21:54:25.280Z,3.20
2017-12-31T21:56:51.608Z,3.20
2017-12-31T21:59:19.004Z,3.20
2017-12-31T22:01:47.048Z,3.20
2017-12-31T22:04:13.392Z,3.20
2017-12-31T22:06:39.721Z,3.30
2017-12-31T22:09:06.974Z,3.30
2017-12-31T22:11:33.303Z,3.30
2017-12-31T22:13:59.656Z,3.30
2017-12-31T22:16:26.814Z,3.30
2017-12-31T22:18:53.145Z,3.30
2017-12-31T22:21:19.504Z,3.20
2017-12-31T22:23:46.270Z,3.20
2017-12-31T22:26:13.683Z,3.20
2017-12-31T22:28:39.993Z,3.20
2017-12-31T22:31:07.088Z,3.20
2017-12-31T22:33:33.416Z,3.20
2017-12-31T22:35:59.771Z,3.20
2017-12-31T22:38:26.500Z,3.10
2017-12-31T22:40:53.646Z,3.20
2017-12-31T22:43:20.804Z,3.10
2017-12-31T22:45:47.147Z,3.10
2017-12-31T22:48:13.462Z,3.20
2017-12-31T22:50:40.299Z,3.10
2017-12-31T22:53:07.480Z,3.20
2017-12-31T22:55:33.819Z,3.20
2017-12-31T22:58:00.181Z,3.30
2017-12-31T23:00:27.312Z,3.30
2017-12-31T23:02:53.635Z,3.30
2017-12-31T23:05:19.980Z,3.30
2017-12-31T23:07:47.353Z,3.20
2017-12-31T23:10:14.392Z,3.20
2017-12-31T23:12:41.416Z,3.20
2017-12-31T23:15:07.753Z,3.10
2017-12-31T23:17:34.501Z,3.10
2017-12-31T23:20:01.693Z,3.10
2017-12-31T23:22:28.046Z,3.10
2017-12-31T23:24:56.200Z,3.10
2017-12-31T23:27:23.276Z,3.10
2017-12-31T23:29:50.360Z,3.10
2017-12-31T23:32:17.353Z,3.10
2017-12-31T23:34:43.688Z,3.20
2017-12-31T23:37:10.008Z,3.10
2017-12-31T23:39:37.084Z,3.00
2017-12-31T23:42:04.345Z,3.00
2017-12-31T23:44:30.669Z,2.90
2017-12-31T23:46:57.003Z,2.90
2017-12-31T23:49:25.601Z,2.80
2017-12-31T23:51:51.964Z,2.80
2017-12-31T23:54:18.307Z,2.80
2017-12-31T23:56:46.249Z,2.70
2017-12-31T23:59:12.585Z,2.70
